Pagrindinis puslapis
METAR-TAF:

METAR-TAF

Oro uostai :

Čumphonas, Tailandas

platuma: 10-42-40N, ilguma: 099-21-42E, Aukštis: 5 m

Dabartinis oras

Ataskaita buvo paskelbta 44 minutes, ne 01:00 UTC
Ramus vėjas
Temperatūra 24°C
Drėgmė 94%
Slėgis 1009 hPa
Matomumas: 8000 m

METAR: VTSE 260100Z 00000KT 8000 NSC 24/23 Q1009 NOSIG

Laikas: 08:44 (01:44 UTC)

Prognozė

Ataskaita buvo paskelbta 2 valandos ir 44 minutes, ne 23:00 UTC
Prognozė galioja nuo 26 metu 00 UTC su 26 metu 24 UTC
Vėjas 5 kt iš Vakarų/Pietvakarių
Matomumas: 9000 m
Mažai debesys ne aukštis 2000 ft

TAF: VTSE 252300Z 2600/2624 25005KT 9000 FEW020

Orai ataskaitas ir orų prognozės (METAR, TAF).

turimą stotys yra geltonos ir raudonos taškus žemėlapyje.

Perkelti pele per norėdami pamatyti stoties vardą.

Tada spustelėkite, norėdami matyti oro stebėjimo ir prognozės.

Norėdami pakeisti žemėlapį: spustelėkite ant žalios mygtukų su juodo kryžiaus žemyn,; žalią mygtuką su brūkšneliu, jei norite nutolinti; arba žalių rodyklių gretimoms žemėlapius.


METAR-TAF: